sensor_id;sensor_type;location;lat;lon;timestamp;pressure;altitude;pressure_sealevel;temperature;humidity
67803;BME280;54601;51.378;-1.342;2023-04-02T00:04:25;100504.52;;;19.53;31.76
67803;BME280;54601;51.378;-1.342;2023-04-02T00:06:52;100503.40;;;19.33;31.69
67803;BME280;54601;51.378;-1.342;2023-04-02T00:09:28;100504.14;;;19.33;31.64
67803;BME280;54601;51.378;-1.342;2023-04-02T00:11:43;100511.24;;;19.62;31.62
67803;BME280;54601;51.378;-1.342;2023-04-02T00:14:12;100513.33;;;19.18;31.82
67803;BME280;54601;51.378;-1.342;2023-04-02T00:16:31;100517.69;;;19.52;31.74
67803;BME280;54601;51.378;-1.342;2023-04-02T00:18:59;100522.68;;;19.69;31.55
67803;BME280;54601;51.378;-1.342;2023-04-02T00:21:25;100528.27;;;19.65;31.54
67803;BME280;54601;51.378;-1.342;2023-04-02T00:23:46;100529.71;;;19.89;31.52
67803;BME280;54601;51.378;-1.342;2023-04-02T00:28:36;100528.37;;;19.11;31.81
67803;BME280;54601;51.378;-1.342;2023-04-02T00:31:02;100533.04;;;19.55;31.62
67803;BME280;54601;51.378;-1.342;2023-04-02T00:33:29;100538.82;;;19.30;31.60
67803;BME280;54601;51.378;-1.342;2023-04-02T00:35:54;100539.81;;;19.58;31.57
67803;BME280;54601;51.378;-1.342;2023-04-02T00:38:21;100543.44;;;19.73;31.37
67803;BME280;54601;51.378;-1.342;2023-04-02T00:40:43;100546.10;;;19.50;31.62
67803;BME280;54601;51.378;-1.342;2023-04-02T00:43:08;100549.72;;;19.43;31.68
67803;BME280;54601;51.378;-1.342;2023-04-02T00:45:35;100555.77;;;19.80;31.54
67803;BME280;54601;51.378;-1.342;2023-04-02T00:47:59;100558.77;;;19.80;31.53
67803;BME280;54601;51.378;-1.342;2023-04-02T00:50:29;100559.64;;;19.54;31.53
67803;BME280;54601;51.378;-1.342;2023-04-02T00:52:50;100563.05;;;19.20;31.62
67803;BME280;54601;51.378;-1.342;2023-04-02T00:55:16;100567.43;;;19.30;31.51
67803;BME280;54601;51.378;-1.342;2023-04-02T00:57:41;100570.95;;;19.62;31.45
67803;BME280;54601;51.378;-1.342;2023-04-02T01:00:17;100573.98;;;19.25;31.55
67803;BME280;54601;51.378;-1.342;2023-04-02T01:02:31;100581.28;;;19.77;31.50
67803;BME280;54601;51.378;-1.342;2023-04-02T01:04:57;100580.43;;;19.54;31.71
67803;BME280;54601;51.378;-1.342;2023-04-02T01:07:27;100583.25;;;19.67;31.58
67803;BME280;54601;51.378;-1.342;2023-04-02T01:09:58;100585.45;;;19.45;31.58
67803;BME280;54601;51.378;-1.342;2023-04-02T01:12:22;100588.12;;;19.57;31.67
67803;BME280;54601;51.378;-1.342;2023-04-02T01:14:44;100590.43;;;19.43;31.57
67803;BME280;54601;51.378;-1.342;2023-04-02T01:17:08;100593.67;;;19.52;31.46
67803;BME280;54601;51.378;-1.342;2023-04-02T01:21:55;100603.89;;;19.37;31.60
67803;BME280;54601;51.378;-1.342;2023-04-02T01:24:17;100604.97;;;19.39;31.54
67803;BME280;54601;51.378;-1.342;2023-04-02T01:26:48;100609.28;;;19.35;31.60
67803;BME280;54601;51.378;-1.342;2023-04-02T01:29:11;100612.40;;;19.53;31.66
67803;BME280;54601;51.378;-1.342;2023-04-02T01:31:33;100611.98;;;19.07;31.63
67803;BME280;54601;51.378;-1.342;2023-04-02T01:33:58;100614.95;;;19.33;31.62
67803;BME280;54601;51.378;-1.342;2023-04-02T01:36:28;100615.06;;;19.52;31.60
67803;BME280;54601;51.378;-1.342;2023-04-02T01:38:55;100613.69;;;19.71;31.44
67803;BME280;54601;51.378;-1.342;2023-04-02T01:41:16;100614.69;;;19.68;31.47
67803;BME280;54601;51.378;-1.342;2023-04-02T01:43:43;100620.36;;;19.17;31.49
67803;BME280;54601;51.378;-1.342;2023-04-02T01:48:29;100624.01;;;19.33;31.58
67803;BME280;54601;51.378;-1.342;2023-04-02T01:50:55;100626.78;;;19.56;31.59
67803;BME280;54601;51.378;-1.342;2023-04-02T01:53:20;100626.93;;;19.01;31.68
67803;BME280;54601;51.378;-1.342;2023-04-02T01:55:46;100621.70;;;19.34;31.60
67803;BME280;54601;51.378;-1.342;2023-04-02T01:58:10;100629.07;;;19.45;31.45
67803;BME280;54601;51.378;-1.342;2023-04-02T02:00:35;100632.31;;;19.57;31.60
67803;BME280;54601;51.378;-1.342;2023-04-02T02:03:00;100634.72;;;18.89;31.76
67803;BME280;54601;51.378;-1.342;2023-04-02T02:05:25;100643.25;;;19.29;31.66
67803;BME280;54601;51.378;-1.342;2023-04-02T02:07:51;100651.39;;;19.52;31.65
67803;BME280;54601;51.378;-1.342;2023-04-02T02:10:17;100651.36;;;19.54;31.64
67803;BME280;54601;51.378;-1.342;2023-04-02T02:12:41;100653.99;;;19.35;31.63
67803;BME280;54601;51.378;-1.342;2023-04-02T02:15:11;100653.02;;;19.59;31.58
67803;BME280;54601;51.378;-1.342;2023-04-02T02:17:31;100655.77;;;19.23;31.45
67803;BME280;54601;51.378;-1.342;2023-04-02T02:19:57;100655.03;;;19.54;31.67
67803;BME280;54601;51.378;-1.342;2023-04-02T02:22:26;100659.59;;;19.36;31.87
67803;BME280;54601;51.378;-1.342;2023-04-02T02:24:46;100665.52;;;19.33;31.95
67803;BME280;54601;51.378;-1.342;2023-04-02T02:29:37;100667.70;;;18.98;31.77
67803;BME280;54601;51.378;-1.342;2023-04-02T02:32:03;100668.38;;;19.23;31.82
67803;BME280;54601;51.378;-1.342;2023-04-02T02:34:31;100666.39;;;19.27;31.76
67803;BME280;54601;51.378;-1.342;2023-04-02T02:36:55;100665.94;;;19.06;31.71
67803;BME280;54601;51.378;-1.342;2023-04-02T02:39:22;100664.81;;;19.41;31.85
67803;BME280;54601;51.378;-1.342;2023-04-02T02:41:45;100669.36;;;19.38;31.68
67803;BME280;54601;51.378;-1.342;2023-04-02T02:44:13;100672.22;;;19.76;31.46
67803;BME280;54601;51.378;-1.342;2023-04-02T02:46:33;100680.72;;;19.04;31.78
67803;BME280;54601;51.378;-1.342;2023-04-02T02:48:59;100681.65;;;19.57;31.48
67803;BME280;54601;51.378;-1.342;2023-04-02T02:51:27;100687.45;;;19.28;31.52
67803;BME280;54601;51.378;-1.342;2023-04-02T02:53:51;100693.99;;;19.39;31.38
67803;BME280;54601;51.378;-1.342;2023-04-02T02:56:13;100699.66;;;19.67;31.42
67803;BME280;54601;51.378;-1.342;2023-04-02T02:58:38;100704.42;;;19.69;31.39
67803;BME280;54601;51.378;-1.342;2023-04-02T03:01:04;100705.74;;;19.35;31.46
67803;BME280;54601;51.378;-1.342;2023-04-02T03:03:31;100709.75;;;19.32;31.48
67803;BME280;54601;51.378;-1.342;2023-04-02T03:05:59;100716.46;;;19.59;31.24
67803;BME280;54601;51.378;-1.342;2023-04-02T03:08:23;100718.54;;;19.40;31.45
67803;BME280;54601;51.378;-1.342;2023-04-02T03:10:51;100721.72;;;19.74;31.35
67803;BME280;54601;51.378;-1.342;2023-04-02T03:13:17;100721.24;;;19.17;31.69
67803;BME280;54601;51.378;-1.342;2023-04-02T03:15:40;100724.12;;;19.48;31.67
67803;BME280;54601;51.378;-1.342;2023-04-02T03:18:02;100729.23;;;19.20;31.71
67803;BME280;54601;51.378;-1.342;2023-04-02T03:20:31;100728.60;;;19.46;31.72
67803;BME280;54601;51.378;-1.342;2023-04-02T03:22:54;100734.40;;;19.54;31.63
67803;BME280;54601;51.378;-1.342;2023-04-02T03:25:22;100740.35;;;19.50;31.67
67803;BME280;54601;51.378;-1.342;2023-04-02T03:27:44;100740.81;;;19.42;31.76
67803;BME280;54601;51.378;-1.342;2023-04-02T03:32:35;100747.32;;;19.20;31.71
67803;BME280;54601;51.378;-1.342;2023-04-02T03:34:59;100747.10;;;19.16;31.76
67803;BME280;54601;51.378;-1.342;2023-04-02T03:37:24;100748.48;;;19.46;31.70
67803;BME280;54601;51.378;-1.342;2023-04-02T03:39:50;100751.93;;;19.22;31.69
67803;BME280;54601;51.378;-1.342;2023-04-02T03:42:15;100758.82;;;19.45;31.73
67803;BME280;54601;51.378;-1.342;2023-04-02T03:44:42;100763.76;;;19.28;31.63
67803;BME280;54601;51.378;-1.342;2023-04-02T03:47:07;100766.51;;;19.21;31.70
67803;BME280;54601;51.378;-1.342;2023-04-02T03:49:32;100768.29;;;19.24;31.66
67803;BME280;54601;51.378;-1.342;2023-04-02T03:51:57;100770.03;;;19.62;31.56
67803;BME280;54601;51.378;-1.342;2023-04-02T03:54:18;100775.56;;;19.56;31.59
67803;BME280;54601;51.378;-1.342;2023-04-02T03:56:43;100779.72;;;19.78;31.58
67803;BME280;54601;51.378;-1.342;2023-04-02T03:59:14;100783.96;;;19.59;31.53
67803;BME280;54601;51.378;-1.342;2023-04-02T04:01:36;100786.01;;;19.33;31.56
67803;BME280;54601;51.378;-1.342;2023-04-02T04:04:03;100786.88;;;19.52;31.63
67803;BME280;54601;51.378;-1.342;2023-04-02T04:06:25;100786.80;;;19.28;31.55
67803;BME280;54601;51.378;-1.342;2023-04-02T04:08:52;100791.64;;;19.45;31.43
67803;BME280;54601;51.378;-1.342;2023-04-02T04:11:16;100792.48;;;19.23;31.63
67803;BME280;54601;51.378;-1.342;2023-04-02T04:13:43;100795.45;;;19.40;31.42
67803;BME280;54601;51.378;-1.342;2023-04-02T04:16:06;100798.50;;;19.37;31.50
67803;BME280;54601;51.378;-1.342;2023-04-02T04:18:33;100799.53;;;19.57;31.53
67803;BME280;54601;51.378;-1.342;2023-04-02T04:20:58;100803.06;;;19.36;31.51
67803;BME280;54601;51.378;-1.342;2023-04-02T04:23:24;100802.47;;;19.52;31.54
67803;BME280;54601;51.378;-1.342;2023-04-02T04:25:45;100808.76;;;19.50;31.32
67803;BME280;54601;51.378;-1.342;2023-04-02T04:28:18;100810.59;;;19.65;31.36
67803;BME280;54601;51.378;-1.342;2023-04-02T04:30:43;100809.08;;;19.28;31.53
67803;BME280;54601;51.378;-1.342;2023-04-02T04:33:04;100810.37;;;19.52;31.29
67803;BME280;54601;51.378;-1.342;2023-04-02T04:35:28;100801.57;;;19.67;31.38
67803;BME280;54601;51.378;-1.342;2023-04-02T04:37:55;100802.97;;;19.58;31.20
67803;BME280;54601;51.378;-1.342;2023-04-02T04:40:19;100813.32;;;19.39;31.39
67803;BME280;54601;51.378;-1.342;2023-04-02T04:42:42;100825.88;;;19.51;31.22
67803;BME280;54601;51.378;-1.342;2023-04-02T04:45:14;100831.76;;;19.72;31.00
67803;BME280;54601;51.378;-1.342;2023-04-02T04:47:34;100836.58;;;19.55;31.09
67803;BME280;54601;51.378;-1.342;2023-04-02T04:50:02;100833.18;;;19.71;30.99
67803;BME280;54601;51.378;-1.342;2023-04-02T04:52:24;100835.36;;;19.43;31.31
67803;BME280;54601;51.378;-1.342;2023-04-02T04:54:47;100838.80;;;19.64;31.35
67803;BME280;54601;51.378;-1.342;2023-04-02T04:57:22;100843.66;;;19.73;31.20
67803;BME280;54601;51.378;-1.342;2023-04-02T04:59:42;100849.13;;;19.45;31.25
67803;BME280;54601;51.378;-1.342;2023-04-02T05:02:06;100851.23;;;19.48;31.20
67803;BME280;54601;51.378;-1.342;2023-04-02T05:04:30;100854.41;;;19.81;31.10
67803;BME280;54601;51.378;-1.342;2023-04-02T05:06:55;100856.84;;;19.40;31.53
67803;BME280;54601;51.378;-1.342;2023-04-02T05:09:22;100858.66;;;19.60;31.32
67803;BME280;54601;51.378;-1.342;2023-04-02T05:11:46;100863.15;;;19.38;31.30
67803;BME280;54601;51.378;-1.342;2023-04-02T05:14:17;100873.42;;;19.35;31.28
67803;BME280;54601;51.378;-1.342;2023-04-02T05:16:37;100884.26;;;19.62;31.31
67803;BME280;54601;51.378;-1.342;2023-04-02T05:19:04;100889.17;;;19.46;31.12
67803;BME280;54601;51.378;-1.342;2023-04-02T05:21:26;100890.32;;;19.51;31.05
67803;BME280;54601;51.378;-1.342;2023-04-02T05:23:52;100893.13;;;19.81;31.03
67803;BME280;54601;51.378;-1.342;2023-04-02T05:26:17;100896.96;;;19.71;31.13
67803;BME280;54601;51.378;-1.342;2023-04-02T05:28:43;100901.50;;;19.11;31.51
67803;BME280;54601;51.378;-1.342;2023-04-02T05:31:07;100906.61;;;19.34;31.23
67803;BME280;54601;51.378;-1.342;2023-04-02T05:33:32;100905.66;;;19.19;31.40
67803;BME280;54601;51.378;-1.342;2023-04-02T05:35:58;100907.37;;;19.52;31.33
67803;BME280;54601;51.378;-1.342;2023-04-02T05:38:21;100906.23;;;19.59;31.24
67803;BME280;54601;51.378;-1.342;2023-04-02T05:40:46;100909.43;;;19.16;31.33
67803;BME280;54601;51.378;-1.342;2023-04-02T05:43:15;100915.08;;;18.84;31.25
67803;BME280;54601;51.378;-1.342;2023-04-02T05:45:36;100922.91;;;19.58;31.21
67803;BME280;54601;51.378;-1.342;2023-04-02T05:48:03;100935.13;;;19.58;31.19
67803;BME280;54601;51.378;-1.342;2023-04-02T05:50:27;100941.02;;;19.64;31.13
67803;BME280;54601;51.378;-1.342;2023-04-02T05:52:53;100943.31;;;19.15;31.36
67803;BME280;54601;51.378;-1.342;2023-04-02T05:55:29;100942.82;;;19.60;31.13
67803;BME280;54601;51.378;-1.342;2023-04-02T05:57:43;100939.22;;;19.56;31.17
67803;BME280;54601;51.378;-1.342;2023-04-02T06:00:12;100946.81;;;19.40;31.06
67803;BME280;54601;51.378;-1.342;2023-04-02T06:02:34;100949.33;;;19.32;31.41
67803;BME280;54601;51.378;-1.342;2023-04-02T06:05:00;100951.17;;;19.61;31.10
67803;BME280;54601;51.378;-1.342;2023-04-02T06:07:23;100958.36;;;19.40;31.32
67803;BME280;54601;51.378;-1.342;2023-04-02T06:09:50;100961.62;;;19.31;31.42
67803;BME280;54601;51.378;-1.342;2023-04-02T06:12:21;100964.05;;;19.38;31.34
67803;BME280;54601;51.378;-1.342;2023-04-02T06:14:37;100969.98;;;19.43;31.25
67803;BME280;54601;51.378;-1.342;2023-04-02T06:17:02;100973.38;;;18.97;31.46
67803;BME280;54601;51.378;-1.342;2023-04-02T06:19:31;100974.83;;;19.48;31.46
67803;BME280;54601;51.378;-1.342;2023-04-02T06:21:58;100980.53;;;19.27;31.42
67803;BME280;54601;51.378;-1.342;2023-04-02T06:24:20;100983.80;;;19.39;31.26
67803;BME280;54601;51.378;-1.342;2023-04-02T06:26:45;100988.96;;;19.31;31.30
67803;BME280;54601;51.378;-1.342;2023-04-02T06:29:13;100994.34;;;19.54;31.31
67803;BME280;54601;51.378;-1.342;2023-04-02T06:31:38;101000.74;;;19.31;31.32
67803;BME280;54601;51.378;-1.342;2023-04-02T06:33:58;101003.79;;;19.12;31.54
67803;BME280;54601;51.378;-1.342;2023-04-02T06:36:24;101010.34;;;19.22;31.38
67803;BME280;54601;51.378;-1.342;2023-04-02T06:38:49;101011.85;;;19.29;31.31
67803;BME280;54601;51.378;-1.342;2023-04-02T06:41:18;101014.18;;;19.49;31.34
67803;BME280;54601;51.378;-1.342;2023-04-02T06:43:41;101021.40;;;19.67;31.13
67803;BME280;54601;51.378;-1.342;2023-04-02T06:46:09;101028.78;;;19.42;31.14
67803;BME280;54601;51.378;-1.342;2023-04-02T06:48:30;101028.96;;;19.31;31.24
67803;BME280;54601;51.378;-1.342;2023-04-02T06:50:58;101039.02;;;19.21;31.36
67803;BME280;54601;51.378;-1.342;2023-04-02T06:53:23;101037.11;;;19.42;31.10
67803;BME280;54601;51.378;-1.342;2023-04-02T06:55:47;101046.24;;;19.24;31.33
67803;BME280;54601;51.378;-1.342;2023-04-02T06:58:10;101050.91;;;19.29;31.25
67803;BME280;54601;51.378;-1.342;2023-04-02T07:00:37;101056.29;;;19.02;31.25
67803;BME280;54601;51.378;-1.342;2023-04-02T07:03:04;101054.88;;;19.25;31.29
67803;BME280;54601;51.378;-1.342;2023-04-02T07:05:25;101055.70;;;19.26;31.27
67803;BME280;54601;51.378;-1.342;2023-04-02T07:07:51;101057.21;;;19.51;31.20
67803;BME280;54601;51.378;-1.342;2023-04-02T07:10:16;101056.42;;;19.54;31.18
67803;BME280;54601;51.378;-1.342;2023-04-02T07:12:41;101060.70;;;19.17;31.37
67803;BME280;54601;51.378;-1.342;2023-04-02T07:15:08;101059.56;;;19.17;31.33
67803;BME280;54601;51.378;-1.342;2023-04-02T07:17:31;101068.90;;;19.34;31.16
67803;BME280;54601;51.378;-1.342;2023-04-02T07:19:57;101075.92;;;19.53;31.19
67803;BME280;54601;51.378;-1.342;2023-04-02T07:22:22;101078.93;;;19.55;31.14
67803;BME280;54601;51.378;-1.342;2023-04-02T07:24:47;101085.46;;;19.15;31.02
67803;BME280;54601;51.378;-1.342;2023-04-02T07:27:13;101089.66;;;19.16;31.02
67803;BME280;54601;51.378;-1.342;2023-04-02T07:29:37;101094.34;;;19.38;30.83
67803;BME280;54601;51.378;-1.342;2023-04-02T07:32:03;101095.27;;;19.73;30.96
67803;BME280;54601;51.378;-1.342;2023-04-02T07:34:28;101094.42;;;19.23;31.25
67803;BME280;54601;51.378;-1.342;2023-04-02T07:36:53;101105.09;;;19.33;31.11
67803;BME280;54601;51.378;-1.342;2023-04-02T07:39:18;101105.65;;;19.20;30.99
67803;BME280;54601;51.378;-1.342;2023-04-02T07:41:50;101111.02;;;19.48;31.20
67803;BME280;54601;51.378;-1.342;2023-04-02T07:44:09;101112.95;;;19.31;31.19
67803;BME280;54601;51.378;-1.342;2023-04-02T07:46:34;101115.95;;;19.32;31.16
67803;BME280;54601;51.378;-1.342;2023-04-02T07:48:59;101117.93;;;19.39;31.01
67803;BME280;54601;51.378;-1.342;2023-04-02T07:51:25;101122.44;;;19.42;31.02
67803;BME280;54601;51.378;-1.342;2023-04-02T07:53:50;101122.57;;;19.17;31.33
67803;BME280;54601;51.378;-1.342;2023-04-02T07:56:16;101126.53;;;19.61;31.07
67803;BME280;54601;51.378;-1.342;2023-04-02T07:58:40;101125.87;;;19.21;31.28
67803;BME280;54601;51.378;-1.342;2023-04-02T08:01:14;101127.66;;;19.50;31.22
67803;BME280;54601;51.378;-1.342;2023-04-02T08:03:30;101130.70;;;19.60;31.12
67803;BME280;54601;51.378;-1.342;2023-04-02T08:05:57;101131.74;;;19.60;31.06
67803;BME280;54601;51.378;-1.342;2023-04-02T08:08:21;101135.78;;;19.32;31.18
67803;BME280;54601;51.378;-1.342;2023-04-02T08:10:46;101143.05;;;19.63;30.99
67803;BME280;54601;51.378;-1.342;2023-04-02T08:13:11;101146.25;;;19.14;31.06
67803;BME280;54601;51.378;-1.342;2023-04-02T08:15:36;101150.90;;;19.64;30.85
67803;BME280;54601;51.378;-1.342;2023-04-02T08:18:01;101152.91;;;19.46;31.27
67803;BME280;54601;51.378;-1.342;2023-04-02T08:20:26;101152.62;;;19.06;31.16
67803;BME280;54601;51.378;-1.342;2023-04-02T08:22:52;101158.23;;;19.71;30.88
67803;BME280;54601;51.378;-1.342;2023-04-02T08:25:17;101159.70;;;19.66;31.02
67803;BME280;54601;51.378;-1.342;2023-04-02T08:27:45;101162.08;;;19.47;30.98
67803;BME280;54601;51.378;-1.342;2023-04-02T08:30:10;101166.58;;;19.51;31.20
67803;BME280;54601;51.378;-1.342;2023-04-02T08:32:33;101165.82;;;19.54;30.92
67803;BME280;54601;51.378;-1.342;2023-04-02T08:34:58;101168.32;;;19.40;30.77
67803;BME280;54601;51.378;-1.342;2023-04-02T08:37:23;101169.12;;;19.79;30.89
67803;BME280;54601;51.378;-1.342;2023-04-02T08:39:48;101178.05;;;19.27;31.21
67803;BME280;54601;51.378;-1.342;2023-04-02T08:42:21;101187.61;;;19.49;30.97
67803;BME280;54601;51.378;-1.342;2023-04-02T08:44:45;101192.33;;;19.37;31.04
67803;BME280;54601;51.378;-1.342;2023-04-02T08:47:05;101199.43;;;19.16;31.37
67803;BME280;54601;51.378;-1.342;2023-04-02T08:49:32;101203.07;;;19.24;31.29
67803;BME280;54601;51.378;-1.342;2023-04-02T08:51:54;101206.49;;;18.88;31.37
67803;BME280;54601;51.378;-1.342;2023-04-02T08:54:23;101211.43;;;19.33;31.45
67803;BME280;54601;51.378;-1.342;2023-04-02T08:56:50;101218.94;;;19.19;31.34
67803;BME280;54601;51.378;-1.342;2023-04-02T08:59:18;101220.00;;;18.96;31.33
67803;BME280;54601;51.378;-1.342;2023-04-02T09:01:41;101230.67;;;18.93;31.40
67803;BME280;54601;51.378;-1.342;2023-04-02T09:04:02;101240.30;;;18.87;31.46
67803;BME280;54601;51.378;-1.342;2023-04-02T09:06:26;101241.73;;;18.61;31.53
67803;BME280;54601;51.378;-1.342;2023-04-02T09:08:52;101245.73;;;19.36;31.49
67803;BME280;54601;51.378;-1.342;2023-04-02T09:11:21;101248.88;;;18.62;31.78
67803;BME280;54601;51.378;-1.342;2023-04-02T09:13:44;101248.74;;;18.59;31.84
67803;BME280;54601;51.378;-1.342;2023-04-02T09:16:08;101241.99;;;19.13;31.49
67803;BME280;54601;51.378;-1.342;2023-04-02T09:18:32;101243.50;;;18.94;31.43
67803;BME280;54601;51.378;-1.342;2023-04-02T09:20:57;101245.25;;;19.14;31.51
67803;BME280;54601;51.378;-1.342;2023-04-02T09:23:23;101243.09;;;18.57;31.62
67803;BME280;54601;51.378;-1.342;2023-04-02T09:25:49;101240.41;;;19.06;31.63
67803;BME280;54601;51.378;-1.342;2023-04-02T09:28:12;101243.89;;;19.21;31.46
67803;BME280;54601;51.378;-1.342;2023-04-02T09:30:49;101248.15;;;18.74;31.63
67803;BME280;54601;51.378;-1.342;2023-04-02T09:33:04;101258.67;;;18.78;31.65
67803;BME280;54601;51.378;-1.342;2023-04-02T09:35:29;101265.37;;;18.70;31.77
67803;BME280;54601;51.378;-1.342;2023-04-02T09:40:23;101265.66;;;19.55;31.40
67803;BME280;54601;51.378;-1.342;2023-04-02T09:42:43;101268.03;;;19.31;31.67
67803;BME280;54601;51.378;-1.342;2023-04-02T09:45:16;101271.75;;;19.10;31.37
67803;BME280;54601;51.378;-1.342;2023-04-02T09:47:33;101278.73;;;19.24;31.52
67803;BME280;54601;51.378;-1.342;2023-04-02T09:52:27;101279.23;;;18.97;31.88
67803;BME280;54601;51.378;-1.342;2023-04-02T09:57:18;101279.05;;;19.17;31.64
67803;BME280;54601;51.378;-1.342;2023-04-02T09:59:39;101277.21;;;18.84;31.71
67803;BME280;54601;51.378;-1.342;2023-04-02T10:04:34;101286.84;;;18.65;31.89
67803;BME280;54601;51.378;-1.342;2023-04-02T10:06:55;101286.63;;;19.15;31.69
67803;BME280;54601;51.378;-1.342;2023-04-02T10:09:27;101284.70;;;18.98;31.81
67803;BME280;54601;51.378;-1.342;2023-04-02T10:11:46;101287.56;;;19.03;31.77
67803;BME280;54601;51.378;-1.342;2023-04-02T10:14:16;101288.70;;;18.77;31.73
67803;BME280;54601;51.378;-1.342;2023-04-02T10:16:39;101297.63;;;19.14;31.67
67803;BME280;54601;51.378;-1.342;2023-04-02T10:19:05;101296.79;;;18.93;31.86
67803;BME280;54601;51.378;-1.342;2023-04-02T10:21:28;101306.45;;;19.28;31.55
67803;BME280;54601;51.378;-1.342;2023-04-02T10:23:51;101305.89;;;19.29;31.48
67803;BME280;54601;51.378;-1.342;2023-04-02T10:26:28;101307.03;;;19.34;31.44
67803;BME280;54601;51.378;-1.342;2023-04-02T10:28:53;101312.02;;;18.97;31.54
67803;BME280;54601;51.378;-1.342;2023-04-02T10:31:10;101317.02;;;19.09;31.40
67803;BME280;54601;51.378;-1.342;2023-04-02T10:33:36;101322.46;;;19.08;31.40
67803;BME280;54601;51.378;-1.342;2023-04-02T10:36:04;101329.09;;;19.08;31.40
67803;BME280;54601;51.378;-1.342;2023-04-02T10:38:33;101331.17;;;18.99;31.50
67803;BME280;54601;51.378;-1.342;2023-04-02T10:40:51;101336.44;;;19.29;31.50
67803;BME280;54601;51.378;-1.342;2023-04-02T10:45:43;101341.52;;;19.23;31.30
67803;BME280;54601;51.378;-1.342;2023-04-02T10:48:11;101344.43;;;19.07;31.47
67803;BME280;54601;51.378;-1.342;2023-04-02T10:50:34;101348.14;;;19.10;31.43
67803;BME280;54601;51.378;-1.342;2023-04-02T10:52:57;101352.52;;;19.09;31.46
67803;BME280;54601;51.378;-1.342;2023-04-02T10:55:20;101354.93;;;19.21;31.32
67803;BME280;54601;51.378;-1.342;2023-04-02T10:57:44;101353.23;;;19.18;31.33
67803;BME280;54601;51.378;-1.342;2023-04-02T11:00:18;101355.51;;;19.22;31.26
67803;BME280;54601;51.378;-1.342;2023-04-02T11:02:39;101353.15;;;19.10;31.32
67803;BME280;54601;51.378;-1.342;2023-04-02T11:05:05;101352.71;;;19.02;31.50
67803;BME280;54601;51.378;-1.342;2023-04-02T11:07:25;101356.29;;;19.22;31.30
67803;BME280;54601;51.378;-1.342;2023-04-02T11:09:52;101358.67;;;19.53;31.18
67803;BME280;54601;51.378;-1.342;2023-04-02T11:12:20;101362.37;;;19.13;31.38
67803;BME280;54601;51.378;-1.342;2023-04-02T11:14:40;101365.48;;;19.20;31.28
67803;BME280;54601;51.378;-1.342;2023-04-02T11:17:10;101369.72;;;19.18;31.31
67803;BME280;54601;51.378;-1.342;2023-04-02T11:19:31;101371.54;;;19.17;31.35
67803;BME280;54601;51.378;-1.342;2023-04-02T11:21:56;101365.45;;;19.43;31.33
67803;BME280;54601;51.378;-1.342;2023-04-02T11:24:35;101362.12;;;19.23;31.24
67803;BME280;54601;51.378;-1.342;2023-04-02T11:26:46;101360.60;;;19.31;31.13
67803;BME280;54601;51.378;-1.342;2023-04-02T11:29:17;101363.17;;;18.98;31.47
67803;BME280;54601;51.378;-1.342;2023-04-02T11:31:36;101371.50;;;19.24;31.23
67803;BME280;54601;51.378;-1.342;2023-04-02T11:34:01;101374.46;;;19.03;31.46
67803;BME280;54601;51.378;-1.342;2023-04-02T11:38:51;101374.84;;;19.12;31.36
67803;BME280;54601;51.378;-1.342;2023-04-02T11:43:48;101382.27;;;19.17;31.28
67803;BME280;54601;51.378;-1.342;2023-04-02T11:48:34;101389.27;;;19.31;31.14
67803;BME280;54601;51.378;-1.342;2023-04-02T11:50:58;101390.64;;;18.96;31.42
67803;BME280;54601;51.378;-1.342;2023-04-02T11:53:27;101394.05;;;19.35;31.10
67803;BME280;54601;51.378;-1.342;2023-04-02T11:58:24;101397.49;;;19.51;30.92
67803;BME280;54601;51.378;-1.342;2023-04-02T12:05:30;101399.56;;;19.16;31.27
67803;BME280;54601;51.378;-1.342;2023-04-02T12:10:20;101402.45;;;19.38;31.05
67803;BME280;54601;51.378;-1.342;2023-04-02T12:12:44;101406.97;;;19.32;31.11
67803;BME280;54601;51.378;-1.342;2023-04-02T12:17:35;101420.14;;;19.35;31.10
67803;BME280;54601;51.378;-1.342;2023-04-02T12:20:02;101420.85;;;19.30;31.12
67803;BME280;54601;51.378;-1.342;2023-04-02T12:22:27;101417.69;;;19.15;31.33
67803;BME280;54601;51.378;-1.342;2023-04-02T12:24:53;101419.27;;;19.85;30.88
67803;BME280;54601;51.378;-1.342;2023-04-02T12:27:17;101416.20;;;19.17;31.22
67803;BME280;54601;51.378;-1.342;2023-04-02T12:29:40;101415.30;;;19.34;31.11
67803;BME280;54601;51.378;-1.342;2023-04-02T12:32:15;101414.96;;;19.33;31.08
67803;BME280;54601;51.378;-1.342;2023-04-02T12:34:30;101421.76;;;19.26;31.18
67803;BME280;54601;51.378;-1.342;2023-04-02T12:36:57;101423.55;;;19.21;31.22
67803;BME280;54601;51.378;-1.342;2023-04-02T12:39:21;101423.14;;;19.25;31.13
67803;BME280;54601;51.378;-1.342;2023-04-02T12:41:46;101429.16;;;19.32;31.09
67803;BME280;54601;51.378;-1.342;2023-04-02T12:44:13;101429.42;;;18.92;31.29
67803;BME280;54601;51.378;-1.342;2023-04-02T12:46:37;101428.51;;;19.01;31.39
67803;BME280;54601;51.378;-1.342;2023-04-02T12:49:04;101431.00;;;19.19;31.22
67803;BME280;54601;51.378;-1.342;2023-04-02T12:51:26;101427.35;;;19.09;31.08
67803;BME280;54601;51.378;-1.342;2023-04-02T12:53:52;101428.01;;;18.71;31.50
67803;BME280;54601;51.378;-1.342;2023-04-02T12:56:19;101428.27;;;19.17;31.21
67803;BME280;54601;51.378;-1.342;2023-04-02T12:58:42;101430.83;;;19.43;30.95
67803;BME280;54601;51.378;-1.342;2023-04-02T13:01:13;101434.01;;;19.38;31.02
67803;BME280;54601;51.378;-1.342;2023-04-02T13:03:32;101437.01;;;19.37;31.03
67803;BME280;54601;51.378;-1.342;2023-04-02T13:05:58;101434.19;;;18.86;31.48
67803;BME280;54601;51.378;-1.342;2023-04-02T13:08:25;101433.06;;;18.98;31.43
67803;BME280;54601;51.378;-1.342;2023-04-02T13:10:52;101434.93;;;19.01;31.11
67803;BME280;54601;51.378;-1.342;2023-04-02T13:13:16;101431.11;;;19.21;30.91
67803;BME280;54601;51.378;-1.342;2023-04-02T13:15:38;101432.16;;;19.39;30.95